sensor_id;sensor_type;location;lat;lon;timestamp;temperature;humidity
26687;DHT22;14298;50.900;4.648;2023-02-01T00:01:22;6.90;97.10
26687;DHT22;14298;50.900;4.648;2023-02-01T00:03:50;6.90;97.10
26687;DHT22;14298;50.900;4.648;2023-02-01T00:06:18;6.90;97.10
26687;DHT22;14298;50.900;4.648;2023-02-01T00:08:46;6.90;97.10
26687;DHT22;14298;50.900;4.648;2023-02-01T00:11:15;6.90;97.10
26687;DHT22;14298;50.900;4.648;2023-02-01T00:13:43;6.90;97.10
26687;DHT22;14298;50.900;4.648;2023-02-01T00:16:14;7.00;97.10
26687;DHT22;14298;50.900;4.648;2023-02-01T00:18:47;6.90;97.10
26687;DHT22;14298;50.900;4.648;2023-02-01T00:21:18;6.90;97.10
26687;DHT22;14298;50.900;4.648;2023-02-01T00:23:47;6.90;97.10
26687;DHT22;14298;50.900;4.648;2023-02-01T00:26:33;6.90;97.10
26687;DHT22;14298;50.900;4.648;2023-02-01T00:29:04;6.80;97.10
26687;DHT22;14298;50.900;4.648;2023-02-01T00:31:32;6.80;97.10
26687;DHT22;14298;50.900;4.648;2023-02-01T00:34:01;6.80;97.10
26687;DHT22;14298;50.900;4.648;2023-02-01T00:36:29;6.80;97.10
26687;DHT22;14298;50.900;4.648;2023-02-01T00:38:58;6.80;97.10
26687;DHT22;14298;50.900;4.648;2023-02-01T00:41:27;6.80;97.10
26687;DHT22;14298;50.900;4.648;2023-02-01T00:43:55;6.80;97.10
26687;DHT22;14298;50.900;4.648;2023-02-01T00:46:23;6.80;97.10
26687;DHT22;14298;50.900;4.648;2023-02-01T00:48:52;6.80;97.10
26687;DHT22;14298;50.900;4.648;2023-02-01T00:51:23;6.80;97.10
26687;DHT22;14298;50.900;4.648;2023-02-01T00:53:52;6.80;97.10
26687;DHT22;14298;50.900;4.648;2023-02-01T00:56:21;6.80;97.10
26687;DHT22;14298;50.900;4.648;2023-02-01T00:58:49;6.80;97.10
26687;DHT22;14298;50.900;4.648;2023-02-01T01:01:20;6.90;97.10
26687;DHT22;14298;50.900;4.648;2023-02-01T01:03:57;6.90;97.10
26687;DHT22;14298;50.900;4.648;2023-02-01T01:06:28;6.80;97.10
26687;DHT22;14298;50.900;4.648;2023-02-01T01:08:57;6.80;97.10
26687;DHT22;14298;50.900;4.648;2023-02-01T01:11:29;6.80;97.10
26687;DHT22;14298;50.900;4.648;2023-02-01T01:13:58;6.90;97.10
26687;DHT22;14298;50.900;4.648;2023-02-01T01:16:28;6.80;97.10
26687;DHT22;14298;50.900;4.648;2023-02-01T01:18:57;6.80;97.10
26687;DHT22;14298;50.900;4.648;2023-02-01T01:21:27;6.80;97.10
26687;DHT22;14298;50.900;4.648;2023-02-01T01:23:56;6.80;97.10
26687;DHT22;14298;50.900;4.648;2023-02-01T01:26:26;6.80;97.10
26687;DHT22;14298;50.900;4.648;2023-02-01T01:28:56;6.80;97.10
26687;DHT22;14298;50.900;4.648;2023-02-01T01:31:25;6.80;97.10
26687;DHT22;14298;50.900;4.648;2023-02-01T01:33:56;6.80;97.10
26687;DHT22;14298;50.900;4.648;2023-02-01T01:36:26;6.80;97.10
26687;DHT22;14298;50.900;4.648;2023-02-01T01:38:54;6.80;97.10
26687;DHT22;14298;50.900;4.648;2023-02-01T01:41:26;6.80;97.10
26687;DHT22;14298;50.900;4.648;2023-02-01T01:43:57;6.80;97.10
26687;DHT22;14298;50.900;4.648;2023-02-01T01:46:34;6.80;97.10
26687;DHT22;14298;50.900;4.648;2023-02-01T01:49:23;6.80;97.10
26687;DHT22;14298;50.900;4.648;2023-02-01T01:51:57;6.80;97.10
26687;DHT22;14298;50.900;4.648;2023-02-01T01:54:29;6.80;97.10
26687;DHT22;14298;50.900;4.648;2023-02-01T01:57:18;6.80;97.10
26687;DHT22;14298;50.900;4.648;2023-02-01T01:59:44;6.70;97.10
26687;DHT22;14298;50.900;4.648;2023-02-01T02:02:13;6.70;97.10
26687;DHT22;14298;50.900;4.648;2023-02-01T02:04:41;6.70;97.10
26687;DHT22;14298;50.900;4.648;2023-02-01T02:07:30;6.70;97.10
26687;DHT22;14298;50.900;4.648;2023-02-01T02:09:59;6.70;97.10
26687;DHT22;14298;50.900;4.648;2023-02-01T02:12:28;6.70;97.10
26687;DHT22;14298;50.900;4.648;2023-02-01T02:14:57;6.70;97.10
26687;DHT22;14298;50.900;4.648;2023-02-01T02:17:30;6.70;97.10
26687;DHT22;14298;50.900;4.648;2023-02-01T02:23:33;6.70;97.10
26687;DHT22;14298;50.900;4.648;2023-02-01T02:26:14;6.60;97.10
26687;DHT22;14298;50.900;4.648;2023-02-01T02:31:36;6.30;97.10
26687;DHT22;14298;50.900;4.648;2023-02-01T02:34:09;6.10;97.10
26687;DHT22;14298;50.900;4.648;2023-02-01T02:39:44;6.00;97.10
26687;DHT22;14298;50.900;4.648;2023-02-01T02:45:03;5.90;97.10
26687;DHT22;14298;50.900;4.648;2023-02-01T02:47:54;5.80;97.10
26687;DHT22;14298;50.900;4.648;2023-02-01T02:50:42;5.80;97.10
26687;DHT22;14298;50.900;4.648;2023-02-01T02:53:35;5.80;97.10
26687;DHT22;14298;50.900;4.648;2023-02-01T02:56:20;5.70;97.10
26687;DHT22;14298;50.900;4.648;2023-02-01T02:59:09;5.70;97.10
26687;DHT22;14298;50.900;4.648;2023-02-01T03:01:57;5.90;97.10
26687;DHT22;14298;50.900;4.648;2023-02-01T03:04:44;5.90;97.10
26687;DHT22;14298;50.900;4.648;2023-02-01T03:07:15;5.80;97.10
26687;DHT22;14298;50.900;4.648;2023-02-01T03:10:03;5.70;97.10
26687;DHT22;14298;50.900;4.648;2023-02-01T03:12:35;5.70;97.10
26687;DHT22;14298;50.900;4.648;2023-02-01T03:15:52;5.70;97.10
26687;DHT22;14298;50.900;4.648;2023-02-01T03:18:25;5.70;97.10
26687;DHT22;14298;50.900;4.648;2023-02-01T03:20:53;5.80;97.10
26687;DHT22;14298;50.900;4.648;2023-02-01T03:23:24;5.80;97.10
26687;DHT22;14298;50.900;4.648;2023-02-01T03:25:54;5.70;97.10
26687;DHT22;14298;50.900;4.648;2023-02-01T03:28:26;5.80;97.10
26687;DHT22;14298;50.900;4.648;2023-02-01T03:30:56;5.80;97.10
26687;DHT22;14298;50.900;4.648;2023-02-01T03:33:25;5.80;97.10
26687;DHT22;14298;50.900;4.648;2023-02-01T03:39:14;5.80;97.10
26687;DHT22;14298;50.900;4.648;2023-02-01T03:41:46;5.80;97.10
26687;DHT22;14298;50.900;4.648;2023-02-01T03:44:38;5.80;97.10
26687;DHT22;14298;50.900;4.648;2023-02-01T03:47:09;5.80;97.10
26687;DHT22;14298;50.900;4.648;2023-02-01T03:49:57;5.80;97.10
26687;DHT22;14298;50.900;4.648;2023-02-01T03:52:24;5.80;97.10
26687;DHT22;14298;50.900;4.648;2023-02-01T03:54:53;5.80;97.10
26687;DHT22;14298;50.900;4.648;2023-02-01T03:57:28;5.80;97.10
26687;DHT22;14298;50.900;4.648;2023-02-01T04:00:18;5.70;97.10
26687;DHT22;14298;50.900;4.648;2023-02-01T04:02:35;5.70;97.10
26687;DHT22;14298;50.900;4.648;2023-02-01T04:05:03;5.70;97.10
26687;DHT22;14298;50.900;4.648;2023-02-01T04:07:32;5.60;97.10
26687;DHT22;14298;50.900;4.648;2023-02-01T04:10:00;5.60;97.10
26687;DHT22;14298;50.900;4.648;2023-02-01T04:12:30;5.60;97.10
26687;DHT22;14298;50.900;4.648;2023-02-01T04:14:59;5.60;97.10
26687;DHT22;14298;50.900;4.648;2023-02-01T04:17:28;5.50;97.10
26687;DHT22;14298;50.900;4.648;2023-02-01T04:19:57;5.50;97.10
26687;DHT22;14298;50.900;4.648;2023-02-01T04:22:25;5.50;97.10
26687;DHT22;14298;50.900;4.648;2023-02-01T04:24:53;5.50;97.10
26687;DHT22;14298;50.900;4.648;2023-02-01T04:27:22;5.50;97.10
26687;DHT22;14298;50.900;4.648;2023-02-01T04:29:50;5.50;97.10
26687;DHT22;14298;50.900;4.648;2023-02-01T04:32:19;5.50;97.10
26687;DHT22;14298;50.900;4.648;2023-02-01T04:34:48;5.40;97.10
26687;DHT22;14298;50.900;4.648;2023-02-01T04:37:16;5.40;97.10
26687;DHT22;14298;50.900;4.648;2023-02-01T04:39:44;5.40;97.10
26687;DHT22;14298;50.900;4.648;2023-02-01T04:42:13;5.30;97.10
26687;DHT22;14298;50.900;4.648;2023-02-01T04:44:41;5.30;97.10
26687;DHT22;14298;50.900;4.648;2023-02-01T04:47:10;5.30;97.10
26687;DHT22;14298;50.900;4.648;2023-02-01T04:49:38;5.30;97.10
26687;DHT22;14298;50.900;4.648;2023-02-01T04:52:06;5.30;97.10
26687;DHT22;14298;50.900;4.648;2023-02-01T04:54:35;5.30;97.10
26687;DHT22;14298;50.900;4.648;2023-02-01T04:57:03;5.30;97.10
26687;DHT22;14298;50.900;4.648;2023-02-01T04:59:31;5.30;97.10
26687;DHT22;14298;50.900;4.648;2023-02-01T05:02:00;5.30;97.10
26687;DHT22;14298;50.900;4.648;2023-02-01T05:04:28;5.30;97.10
26687;DHT22;14298;50.900;4.648;2023-02-01T05:06:56;5.30;97.10
26687;DHT22;14298;50.900;4.648;2023-02-01T05:09:25;5.30;97.10
26687;DHT22;14298;50.900;4.648;2023-02-01T05:11:53;5.20;97.10
26687;DHT22;14298;50.900;4.648;2023-02-01T05:14:39;5.20;97.10
26687;DHT22;14298;50.900;4.648;2023-02-01T05:17:08;5.20;97.10
26687;DHT22;14298;50.900;4.648;2023-02-01T05:19:36;5.20;97.10
26687;DHT22;14298;50.900;4.648;2023-02-01T05:22:04;5.20;97.10
26687;DHT22;14298;50.900;4.648;2023-02-01T05:24:33;5.10;97.10
26687;DHT22;14298;50.900;4.648;2023-02-01T05:27:01;5.10;97.10
26687;DHT22;14298;50.900;4.648;2023-02-01T05:29:29;5.10;97.10
26687;DHT22;14298;50.900;4.648;2023-02-01T05:31:58;5.10;97.10
26687;DHT22;14298;50.900;4.648;2023-02-01T05:34:26;5.10;97.10
26687;DHT22;14298;50.900;4.648;2023-02-01T05:36:55;5.10;97.10
26687;DHT22;14298;50.900;4.648;2023-02-01T05:39:23;5.10;97.10
26687;DHT22;14298;50.900;4.648;2023-02-01T05:41:51;5.10;97.10
26687;DHT22;14298;50.900;4.648;2023-02-01T05:44:20;5.10;97.10
26687;DHT22;14298;50.900;4.648;2023-02-01T05:46:48;5.00;97.10
26687;DHT22;14298;50.900;4.648;2023-02-01T05:49:16;5.00;97.10
26687;DHT22;14298;50.900;4.648;2023-02-01T05:51:44;5.00;97.10
26687;DHT22;14298;50.900;4.648;2023-02-01T05:54:13;5.00;97.10
26687;DHT22;14298;50.900;4.648;2023-02-01T05:56:41;5.00;97.10
26687;DHT22;14298;50.900;4.648;2023-02-01T05:59:10;4.90;97.10
26687;DHT22;14298;50.900;4.648;2023-02-01T06:01:38;4.90;97.10
26687;DHT22;14298;50.900;4.648;2023-02-01T06:04:07;4.90;97.10
26687;DHT22;14298;50.900;4.648;2023-02-01T06:06:35;4.80;97.10
26687;DHT22;14298;50.900;4.648;2023-02-01T06:09:05;4.80;97.10
26687;DHT22;14298;50.900;4.648;2023-02-01T06:11:33;4.80;97.10
26687;DHT22;14298;50.900;4.648;2023-02-01T06:14:02;4.80;97.10
26687;DHT22;14298;50.900;4.648;2023-02-01T06:16:30;4.80;97.10
26687;DHT22;14298;50.900;4.648;2023-02-01T06:18:58;4.90;97.10
26687;DHT22;14298;50.900;4.648;2023-02-01T06:21:27;4.90;97.10
26687;DHT22;14298;50.900;4.648;2023-02-01T06:23:55;4.90;97.10
26687;DHT22;14298;50.900;4.648;2023-02-01T06:26:25;4.80;97.10
26687;DHT22;14298;50.900;4.648;2023-02-01T06:28:55;4.90;97.10
26687;DHT22;14298;50.900;4.648;2023-02-01T06:31:24;4.90;97.10
26687;DHT22;14298;50.900;4.648;2023-02-01T06:33:52;4.90;97.10
26687;DHT22;14298;50.900;4.648;2023-02-01T06:36:21;4.90;97.10
26687;DHT22;14298;50.900;4.648;2023-02-01T06:38:50;4.90;97.10
26687;DHT22;14298;50.900;4.648;2023-02-01T06:41:18;4.90;97.10
26687;DHT22;14298;50.900;4.648;2023-02-01T06:44:07;4.80;97.10
26687;DHT22;14298;50.900;4.648;2023-02-01T06:46:35;4.90;97.10
26687;DHT22;14298;50.900;4.648;2023-02-01T06:49:03;4.90;97.10
26687;DHT22;14298;50.900;4.648;2023-02-01T06:51:32;4.80;97.10
26687;DHT22;14298;50.900;4.648;2023-02-01T06:54:00;4.80;97.10
26687;DHT22;14298;50.900;4.648;2023-02-01T06:56:29;4.80;97.10
26687;DHT22;14298;50.900;4.648;2023-02-01T06:58:58;4.80;97.10
26687;DHT22;14298;50.900;4.648;2023-02-01T07:01:27;4.80;97.10
26687;DHT22;14298;50.900;4.648;2023-02-01T07:03:56;4.80;97.10
26687;DHT22;14298;50.900;4.648;2023-02-01T07:06:24;4.70;97.10
26687;DHT22;14298;50.900;4.648;2023-02-01T07:09:12;4.80;97.10
26687;DHT22;14298;50.900;4.648;2023-02-01T07:11:41;4.80;97.10
26687;DHT22;14298;50.900;4.648;2023-02-01T07:14:11;4.80;97.10
26687;DHT22;14298;50.900;4.648;2023-02-01T07:16:39;4.70;97.10
26687;DHT22;14298;50.900;4.648;2023-02-01T07:19:07;4.70;97.10
26687;DHT22;14298;50.900;4.648;2023-02-01T07:21:36;4.70;97.10
26687;DHT22;14298;50.900;4.648;2023-02-01T07:24:04;4.70;97.10
26687;DHT22;14298;50.900;4.648;2023-02-01T07:26:33;4.70;97.10
26687;DHT22;14298;50.900;4.648;2023-02-01T07:29:01;4.80;97.10
26687;DHT22;14298;50.900;4.648;2023-02-01T07:31:29;4.80;97.10
26687;DHT22;14298;50.900;4.648;2023-02-01T07:33:58;4.80;97.10
26687;DHT22;14298;50.900;4.648;2023-02-01T07:36:27;4.80;97.10
26687;DHT22;14298;50.900;4.648;2023-02-01T07:38:56;4.90;97.10
26687;DHT22;14298;50.900;4.648;2023-02-01T07:41:26;4.90;97.10
26687;DHT22;14298;50.900;4.648;2023-02-01T07:43:55;4.90;97.10
26687;DHT22;14298;50.900;4.648;2023-02-01T07:46:24;4.90;97.10
26687;DHT22;14298;50.900;4.648;2023-02-01T07:48:52;5.00;97.10
26687;DHT22;14298;50.900;4.648;2023-02-01T07:51:20;5.00;97.10
26687;DHT22;14298;50.900;4.648;2023-02-01T07:53:48;5.00;97.10
26687;DHT22;14298;50.900;4.648;2023-02-01T07:56:18;5.00;97.10
26687;DHT22;14298;50.900;4.648;2023-02-01T07:58:51;5.00;97.10
26687;DHT22;14298;50.900;4.648;2023-02-01T08:01:22;5.10;97.10
26687;DHT22;14298;50.900;4.648;2023-02-01T08:03:56;5.10;97.10
26687;DHT22;14298;50.900;4.648;2023-02-01T08:06:29;5.20;97.10
26687;DHT22;14298;50.900;4.648;2023-02-01T08:08:58;5.30;97.10
26687;DHT22;14298;50.900;4.648;2023-02-01T08:11:27;5.30;97.10
26687;DHT22;14298;50.900;4.648;2023-02-01T08:13:57;5.40;97.10
26687;DHT22;14298;50.900;4.648;2023-02-01T08:16:25;5.50;97.10
26687;DHT22;14298;50.900;4.648;2023-02-01T08:18:54;5.60;97.10
26687;DHT22;14298;50.900;4.648;2023-02-01T08:21:26;5.60;97.10
26687;DHT22;14298;50.900;4.648;2023-02-01T08:23:56;5.60;97.10
26687;DHT22;14298;50.900;4.648;2023-02-01T08:26:25;5.60;97.10
26687;DHT22;14298;50.900;4.648;2023-02-01T08:28:56;5.60;97.10
26687;DHT22;14298;50.900;4.648;2023-02-01T08:31:27;5.60;97.10
26687;DHT22;14298;50.900;4.648;2023-02-01T08:33:58;5.60;97.10
26687;DHT22;14298;50.900;4.648;2023-02-01T08:36:29;5.60;97.10
26687;DHT22;14298;50.900;4.648;2023-02-01T08:38:58;5.60;97.10
26687;DHT22;14298;50.900;4.648;2023-02-01T08:41:28;5.70;97.10
26687;DHT22;14298;50.900;4.648;2023-02-01T08:43:57;5.70;97.10
26687;DHT22;14298;50.900;4.648;2023-02-01T08:46:26;5.80;97.10
26687;DHT22;14298;50.900;4.648;2023-02-01T08:48:55;5.90;97.10
26687;DHT22;14298;50.900;4.648;2023-02-01T08:51:23;5.90;97.10
26687;DHT22;14298;50.900;4.648;2023-02-01T08:53:52;6.00;97.10
26687;DHT22;14298;50.900;4.648;2023-02-01T08:56:20;6.00;97.10
26687;DHT22;14298;50.900;4.648;2023-02-01T08:58:49;6.10;97.10
26687;DHT22;14298;50.900;4.648;2023-02-01T09:01:17;6.20;97.10
26687;DHT22;14298;50.900;4.648;2023-02-01T09:03:46;6.30;97.10
26687;DHT22;14298;50.900;4.648;2023-02-01T09:06:15;6.30;97.10
26687;DHT22;14298;50.900;4.648;2023-02-01T09:08:43;6.40;97.10
26687;DHT22;14298;50.900;4.648;2023-02-01T09:11:14;6.40;97.10
26687;DHT22;14298;50.900;4.648;2023-02-01T09:13:43;6.40;97.10
26687;DHT22;14298;50.900;4.648;2023-02-01T09:16:12;6.50;97.10
26687;DHT22;14298;50.900;4.648;2023-02-01T09:18:40;6.70;97.10
26687;DHT22;14298;50.900;4.648;2023-02-01T09:21:09;7.20;97.10
26687;DHT22;14298;50.900;4.648;2023-02-01T09:23:37;7.70;97.10
26687;DHT22;14298;50.900;4.648;2023-02-01T09:26:05;8.10;97.10
26687;DHT22;14298;50.900;4.648;2023-02-01T09:28:34;8.40;97.10
26687;DHT22;14298;50.900;4.648;2023-02-01T09:31:02;8.60;97.10
26687;DHT22;14298;50.900;4.648;2023-02-01T09:33:31;8.90;97.10
26687;DHT22;14298;50.900;4.648;2023-02-01T09:36:01;9.20;97.10
26687;DHT22;14298;50.900;4.648;2023-02-01T09:38:31;9.40;97.10
26687;DHT22;14298;50.900;4.648;2023-02-01T09:40:59;9.80;97.10
26687;DHT22;14298;50.900;4.648;2023-02-01T09:48:44;9.60;97.10
26687;DHT22;14298;50.900;4.648;2023-02-01T09:51:23;9.60;97.10
26687;DHT22;14298;50.900;4.648;2023-02-01T09:54:11;9.30;97.10
26687;DHT22;14298;50.900;4.648;2023-02-01T09:57:06;8.80;97.10
26687;DHT22;14298;50.900;4.648;2023-02-01T09:59:33;8.60;97.10
26687;DHT22;14298;50.900;4.648;2023-02-01T10:02:02;8.40;97.10
26687;DHT22;14298;50.900;4.648;2023-02-01T10:04:32;8.30;97.10
26687;DHT22;14298;50.900;4.648;2023-02-01T10:10:19;8.20;97.10
26687;DHT22;14298;50.900;4.648;2023-02-01T10:13:05;8.10;97.10
26687;DHT22;14298;50.900;4.648;2023-02-01T10:18:42;8.00;97.10
26687;DHT22;14298;50.900;4.648;2023-02-01T10:24:09;8.10;97.10
26687;DHT22;14298;50.900;4.648;2023-02-01T10:26:37;8.10;97.10
26687;DHT22;14298;50.900;4.648;2023-02-01T10:29:12;8.20;97.10
26687;DHT22;14298;50.900;4.648;2023-02-01T10:31:38;8.20;97.10
26687;DHT22;14298;50.900;4.648;2023-02-01T10:34:25;8.20;97.10
26687;DHT22;14298;50.900;4.648;2023-02-01T10:39:49;8.30;97.10
26687;DHT22;14298;50.900;4.648;2023-02-01T10:42:22;8.40;97.10
26687;DHT22;14298;50.900;4.648;2023-02-01T10:44:51;8.40;97.10
26687;DHT22;14298;50.900;4.648;2023-02-01T10:47:20;8.40;97.10
26687;DHT22;14298;50.900;4.648;2023-02-01T10:50:12;8.40;97.10
26687;DHT22;14298;50.900;4.648;2023-02-01T10:55:46;8.40;97.10
26687;DHT22;14298;50.900;4.648;2023-02-01T10:58:28;8.50;97.10
26687;DHT22;14298;50.900;4.648;2023-02-01T11:01:07;8.50;97.10
26687;DHT22;14298;50.900;4.648;2023-02-01T11:03:41;8.60;97.10
26687;DHT22;14298;50.900;4.648;2023-02-01T11:09:26;8.70;97.10
26687;DHT22;14298;50.900;4.648;2023-02-01T11:11:59;8.80;97.10
26687;DHT22;14298;50.900;4.648;2023-02-01T11:14:37;9.00;97.10
26687;DHT22;14298;50.900;4.648;2023-02-01T11:17:32;9.20;97.10
26687;DHT22;14298;50.900;4.648;2023-02-01T11:20:01;9.20;97.10
26687;DHT22;14298;50.900;4.648;2023-02-01T11:22:29;9.30;97.10
26687;DHT22;14298;50.900;4.648;2023-02-01T11:25:17;9.20;97.10
26687;DHT22;14298;50.900;4.648;2023-02-01T11:27:47;9.20;97.10
26687;DHT22;14298;50.900;4.648;2023-02-01T11:30:19;9.20;97.10
26687;DHT22;14298;50.900;4.648;2023-02-01T11:32:48;9.20;97.10
26687;DHT22;14298;50.900;4.648;2023-02-01T11:35:20;9.20;97.10
26687;DHT22;14298;50.900;4.648;2023-02-01T11:38:00;9.30;97.10
26687;DHT22;14298;50.900;4.648;2023-02-01T11:40:35;9.30;97.10
26687;DHT22;14298;50.900;4.648;2023-02-01T11:43:29;9.30;97.10
26687;DHT22;14298;50.900;4.648;2023-02-01T11:45:59;9.30;97.10
26687;DHT22;14298;50.900;4.648;2023-02-01T11:48:30;9.30;97.10
26687;DHT22;14298;50.900;4.648;2023-02-01T11:51:20;9.20;97.10
26687;DHT22;14298;50.900;4.648;2023-02-01T11:56:38;9.20;97.10
26687;DHT22;14298;50.900;4.648;2023-02-01T12:07:55;9.30;97.10
26687;DHT22;14298;50.900;4.648;2023-02-01T12:10:28;9.40;97.10
26687;DHT22;14298;50.900;4.648;2023-02-01T12:13:24;9.40;97.10
26687;DHT22;14298;50.900;4.648;2023-02-01T12:18:10;9.70;97.10
26687;DHT22;14298;50.900;4.648;2023-02-01T12:23:34;9.70;97.10
26687;DHT22;14298;50.900;4.648;2023-02-01T12:29:08;9.80;97.10
26687;DHT22;14298;50.900;4.648;2023-02-01T12:42:30;9.60;97.10
26687;DHT22;14298;50.900;4.648;2023-02-01T12:47:54;9.80;97.10
26687;DHT22;14298;50.900;4.648;2023-02-01T12:50:44;9.80;97.10
26687;DHT22;14298;50.900;4.648;2023-02-01T12:53:18;9.80;97.10
26687;DHT22;14298;50.900;4.648;2023-02-01T12:55:56;9.80;97.10
26687;DHT22;14298;50.900;4.648;2023-02-01T12:58:27;9.80;97.10
26687;DHT22;14298;50.900;4.648;2023-02-01T13:01:20;9.80;97.10
26687;DHT22;14298;50.900;4.648;2023-02-01T13:07:07;9.80;97.10
26687;DHT22;14298;50.900;4.648;2023-02-01T13:09:52;9.90;97.10
26687;DHT22;14298;50.900;4.648;2023-02-01T13:12:47;9.90;97.10
26687;DHT22;14298;50.900;4.648;2023-02-01T13:15:23;10.00;97.10
26687;DHT22;14298;50.900;4.648;2023-02-01T13:17:52;10.00;97.10
26687;DHT22;14298;50.900;4.648;2023-02-01T13:23:27;10.10;97.10
26687;DHT22;14298;50.900;4.648;2023-02-01T13:25:55;10.10;97.10
26687;DHT22;14298;50.900;4.648;2023-02-01T13:28:26;10.10;97.10
26687;DHT22;14298;50.900;4.648;2023-02-01T13:45:14;10.40;97.10
26687;DHT22;14298;50.900;4.648;2023-02-01T13:47:45;10.40;97.10
26687;DHT22;14298;50.900;4.648;2023-02-01T13:55:50;10.40;97.10
26687;DHT22;14298;50.900;4.648;2023-02-01T13:58:20;10.30;97.10
26687;DHT22;14298;50.900;4.648;2023-02-01T14:00:50;10.20;97.10
26687;DHT22;14298;50.900;4.648;2023-02-01T14:03:21;10.10;97.10
26687;DHT22;14298;50.900;4.648;2023-02-01T14:08:39;10.10;97.10
26687;DHT22;14298;50.900;4.648;2023-02-01T14:11:32;10.00;97.10
26687;DHT22;14298;50.900;4.648;2023-02-01T14:13:40;10.00;97.10
26687;DHT22;14298;50.900;4.648;2023-02-01T14:16:17;10.00;97.10
26687;DHT22;14298;50.900;4.648;2023-02-01T14:21:34;10.10;97.10
26687;DHT22;14298;50.900;4.648;2023-02-01T14:26:41;10.10;97.10
26687;DHT22;14298;50.900;4.648;2023-02-01T14:32:02;10.00;97.10
26687;DHT22;14298;50.900;4.648;2023-02-01T14:34:48;10.00;97.10
26687;DHT22;14298;50.900;4.648;2023-02-01T14:47:42;9.80;97.10
26687;DHT22;14298;50.900;4.648;2023-02-01T14:50:29;9.80;97.10
26687;DHT22;14298;50.900;4.648;2023-02-01T14:53:21;9.80;97.10
26687;DHT22;14298;50.900;4.648;2023-02-01T14:58:41;9.80;97.10
26687;DHT22;14298;50.900;4.648;2023-02-01T15:04:04;9.70;97.10
26687;DHT22;14298;50.900;4.648;2023-02-01T15:06:42;9.70;97.10
26687;DHT22;14298;50.900;4.648;2023-02-01T15:09:16;9.70;97.10
26687;DHT22;14298;50.900;4.648;2023-02-01T15:17:36;9.50;97.10
26687;DHT22;14298;50.900;4.648;2023-02-01T15:20:19;9.40;97.10
26687;DHT22;14298;50.900;4.648;2023-02-01T15:22:57;9.40;97.10
26687;DHT22;14298;50.900;4.648;2023-02-01T15:25:28;9.40;97.10
26687;DHT22;14298;50.900;4.648;2023-02-01T15:27:57;9.40;97.10
26687;DHT22;14298;50.900;4.648;2023-02-01T15:30:28;9.30;97.10
26687;DHT22;14298;50.900;4.648;2023-02-01T15:35:45;9.30;97.10
26687;DHT22;14298;50.900;4.648;2023-02-01T15:41:17;9.30;97.10
26687;DHT22;14298;50.900;4.648;2023-02-01T15:46:24;9.30;97.10
26687;DHT22;14298;50.900;4.648;2023-02-01T15:48:53;9.30;97.10
26687;DHT22;14298;50.900;4.648;2023-02-01T15:51:24;9.30;97.10
26687;DHT22;14298;50.900;4.648;2023-02-01T15:54:04;9.30;97.10
26687;DHT22;14298;50.900;4.648;2023-02-01T15:56:38;9.20;97.10
26687;DHT22;14298;50.900;4.648;2023-02-01T15:59:16;9.20;97.10
26687;DHT22;14298;50.900;4.648;2023-02-01T16:01:45;9.20;97.10
26687;DHT22;14298;50.900;4.648;2023-02-01T16:04:25;9.10;97.10
26687;DHT22;14298;50.900;4.648;2023-02-01T16:07:03;9.10;97.10
26687;DHT22;14298;50.900;4.648;2023-02-01T16:09:48;9.10;97.10
26687;DHT22;14298;50.900;4.648;2023-02-01T16:12:32;9.10;97.10
26687;DHT22;14298;50.900;4.648;2023-02-01T16:15:03;9.10;97.10
26687;DHT22;14298;50.900;4.648;2023-02-01T16:17:32;9.10;97.10
26687;DHT22;14298;50.900;4.648;2023-02-01T16:20:00;9.00;97.10
26687;DHT22;14298;50.900;4.648;2023-02-01T16:22:28;9.00;97.10
26687;DHT22;14298;50.900;4.648;2023-02-01T16:24:57;9.00;97.10
26687;DHT22;14298;50.900;4.648;2023-02-01T16:27:25;9.00;97.10
26687;DHT22;14298;50.900;4.648;2023-02-01T16:29:53;9.00;97.10
26687;DHT22;14298;50.900;4.648;2023-02-01T16:32:24;9.00;97.10
26687;DHT22;14298;50.900;4.648;2023-02-01T16:34:53;8.90;97.10
26687;DHT22;14298;50.900;4.648;2023-02-01T16:37:24;8.90;97.10
26687;DHT22;14298;50.900;4.648;2023-02-01T16:39:55;8.90;97.10
26687;DHT22;14298;50.900;4.648;2023-02-01T16:42:23;8.90;97.10
26687;DHT22;14298;50.900;4.648;2023-02-01T16:44:51;8.80;97.10
26687;DHT22;14298;50.900;4.648;2023-02-01T16:47:21;8.80;97.10
26687;DHT22;14298;50.900;4.648;2023-02-01T16:49:51;8.80;97.10
26687;DHT22;14298;50.900;4.648;2023-02-01T16:52:21;8.80;97.10
26687;DHT22;14298;50.900;4.648;2023-02-01T16:54:50;8.80;97.10
26687;DHT22;14298;50.900;4.648;2023-02-01T16:57:20;8.80;97.10
26687;DHT22;14298;50.900;4.648;2023-02-01T16:59:53;8.80;97.10
26687;DHT22;14298;50.900;4.648;2023-02-01T17:02:21;8.80;97.10
26687;DHT22;14298;50.900;4.648;2023-02-01T17:04:50;8.80;97.10
26687;DHT22;14298;50.900;4.648;2023-02-01T17:07:19;8.90;97.10
26687;DHT22;14298;50.900;4.648;2023-02-01T17:09:47;8.90;97.10
26687;DHT22;14298;50.900;4.648;2023-02-01T17:12:28;8.80;97.10
26687;DHT22;14298;50.900;4.648;2023-02-01T17:14:58;8.80;97.10
26687;DHT22;14298;50.900;4.648;2023-02-01T17:17:35;8.80;97.10
26687;DHT22;14298;50.900;4.648;2023-02-01T17:20:04;8.80;97.10
26687;DHT22;14298;50.900;4.648;2023-02-01T17:22:33;8.80;97.10
26687;DHT22;14298;50.900;4.648;2023-02-01T17:25:02;8.80;97.10
26687;DHT22;14298;50.900;4.648;2023-02-01T17:27:32;8.80;97.10
26687;DHT22;14298;50.900;4.648;2023-02-01T17:30:00;8.80;97.10
26687;DHT22;14298;50.900;4.648;2023-02-01T17:32:49;8.80;97.10
26687;DHT22;14298;50.900;4.648;2023-02-01T17:35:21;8.70;97.10
26687;DHT22;14298;50.900;4.648;2023-02-01T17:37:50;8.70;97.10
26687;DHT22;14298;50.900;4.648;2023-02-01T17:40:18;8.70;97.10
26687;DHT22;14298;50.900;4.648;2023-02-01T17:42:47;8.70;97.10
26687;DHT22;14298;50.900;4.648;2023-02-01T17:45:42;8.70;97.10
26687;DHT22;14298;50.900;4.648;2023-02-01T17:48:07;8.60;97.10
26687;DHT22;14298;50.900;4.648;2023-02-01T17:50:37;8.70;97.10
26687;DHT22;14298;50.900;4.648;2023-02-01T17:53:06;8.70;97.10
26687;DHT22;14298;50.900;4.648;2023-02-01T17:55:39;8.70;97.10
26687;DHT22;14298;50.900;4.648;2023-02-01T17:58:09;8.70;97.10
26687;DHT22;14298;50.900;4.648;2023-02-01T18:00:39;8.70;97.10
26687;DHT22;14298;50.900;4.648;2023-02-01T18:03:27;8.70;97.10
26687;DHT22;14298;50.900;4.648;2023-02-01T18:05:56;8.70;97.10
26687;DHT22;14298;50.900;4.648;2023-02-01T18:08:29;8.70;97.10
26687;DHT22;14298;50.900;4.648;2023-02-01T18:11:02;8.70;97.10
26687;DHT22;14298;50.900;4.648;2023-02-01T18:13:31;8.70;97.10
26687;DHT22;14298;50.900;4.648;2023-02-01T18:15:59;8.70;97.10
26687;DHT22;14298;50.900;4.648;2023-02-01T18:18:30;8.70;97.10
26687;DHT22;14298;50.900;4.648;2023-02-01T18:21:00;8.70;97.10
26687;DHT22;14298;50.900;4.648;2023-02-01T18:23:48;8.60;97.10
26687;DHT22;14298;50.900;4.648;2023-02-01T18:26:17;8.60;97.10
26687;DHT22;14298;50.900;4.648;2023-02-01T18:28:46;8.50;97.10
26687;DHT22;14298;50.900;4.648;2023-02-01T18:31:25;8.50;97.10
26687;DHT22;14298;50.900;4.648;2023-02-01T18:33:56;8.50;97.10
26687;DHT22;14298;50.900;4.648;2023-02-01T18:36:25;8.50;97.10